Time;durP1;ratioP1;P1;durP2;ratioP2;P2;SDS_P1;SDS_P2;PMS_P1;PMS_P2;Temp;Humidity;BMP_temperature;BMP_pressure;BME280_temperature;BME280_humidity;BME280_pressure;Samples;Min_cycle;Max_cycle;Signal;HPM_P1;HPM_P2
2022/05/18 00:00:28;;;;;;;0.20;0.20;;;;;;;18.52;75.49;100334.00;5032534;28;20033;-69
2022/05/18 00:02:59;;;;;;;0.20;0.20;;;;;;;18.36;75.49;100316.81;5032236;28;20029;-69
2022/05/18 00:05:25;;;;;;;0.20;0.20;;;;;;;18.55;75.57;100336.00;5032568;28;20030;-69
2022/05/18 00:07:51;;;;;;;0.20;0.20;;;;;;;18.47;76.07;100340.06;5032497;28;20476;-69
2022/05/18 00:10:18;;;;;;;0.20;0.20;;;;;;;18.41;76.75;100333.28;5032236;28;20032;-69
2022/05/18 00:12:46;;;;;;;0.20;0.20;;;;;;;18.33;77.05;100341.78;5032741;28;20021;-69
2022/05/18 00:15:12;;;;;;;0.20;0.20;;;;;;;18.30;77.30;100341.78;5032169;28;20029;-69
2022/05/18 00:17:37;;;;;;;0.20;0.20;;;;;;;18.31;78.02;100330.09;5032559;28;20369;-68
2022/05/18 00:20:03;;;;;;;0.15;0.15;;;;;;;18.26;78.28;100330.53;5033645;28;20030;-69
2022/05/18 00:22:29;;;;;;;0.20;0.20;;;;;;;18.26;78.17;100336.19;5035864;28;20029;-68
2022/05/18 00:24:55;;;;;;;0.20;0.20;;;;;;;18.25;79.12;100334.56;5035860;28;20060;-69
2022/05/18 00:27:20;;;;;;;0.20;0.20;;;;;;;18.35;78.41;100332.91;5036144;28;20039;-68
2022/05/18 00:29:46;;;;;;;0.10;0.10;;;;;;;18.37;78.19;100327.66;5036104;28;20061;-68
2022/05/18 00:32:11;;;;;;;0.20;0.20;;;;;;;18.36;78.07;100333.72;5036307;28;20026;-69
2022/05/18 00:34:37;;;;;;;0.20;0.20;;;;;;;18.38;78.16;100334.91;5036176;28;20036;-70
2022/05/18 00:37:03;;;;;;;0.10;0.10;;;;;;;18.29;79.25;100323.31;5036323;28;20036;-69
2022/05/18 00:39:28;;;;;;;0.20;0.20;;;;;;;18.24;79.45;100320.91;5036272;28;20026;-70
2022/05/18 00:41:54;;;;;;;0.17;0.17;;;;;;;18.21;79.94;100327.34;5036267;28;20429;-69
2022/05/18 00:44:21;;;;;;;0.20;0.20;;;;;;;18.20;79.79;100323.75;5036446;28;20453;-70
2022/05/18 00:46:46;;;;;;;0.20;0.20;;;;;;;18.23;79.61;100320.13;5035874;28;20033;-70
2022/05/18 00:49:12;;;;;;;0.20;0.20;;;;;;;18.26;79.67;100324.13;5035844;28;20037;-70
2022/05/18 00:51:42;;;;;;;0.10;0.10;;;;;;;18.27;79.65;100317.28;5035789;28;20045;-70
2022/05/18 00:54:19;;;;;;;0.20;0.20;;;;;;;18.24;78.67;100320.91;5035754;28;20030;-70
2022/05/18 00:57:13;;;;;;;0.20;0.20;;;;;;;18.24;79.33;100321.72;5036290;28;20029;-70
2022/05/18 00:59:53;;;;;;;0.20;0.20;;;;;;;18.36;78.40;100320.44;5035807;28;20468;-70
2022/05/18 01:02:19;;;;;;;0.10;0.10;;;;;;;18.38;76.76;100323.66;5035577;28;20034;-70
2022/05/18 01:04:50;;;;;;;0.20;0.20;;;;;;;18.19;77.88;100319.34;5035823;28;20472;-70
2022/05/18 01:07:25;;;;;;;0.20;0.20;;;;;;;18.10;78.30;100316.16;5035753;28;20060;-69
2022/05/18 01:09:50;;;;;;;0.20;0.20;;;;;;;18.09;77.87;100317.38;5035728;28;20041;-69
2022/05/18 01:12:19;;;;;;;0.13;0.13;;;;;;;18.09;78.42;100308.94;5035457;28;20468;-70
2022/05/18 01:14:49;;;;;;;0.10;0.10;;;;;;;18.14;78.16;100308.50;5035666;28;20377;-70
2022/05/18 01:17:19;;;;;;;0.20;0.20;;;;;;;17.98;78.11;100306.19;5035589;28;20461;-69
2022/05/18 01:19:58;;;;;;;0.10;0.10;;;;;;;18.00;78.41;100300.13;5035451;28;20079;-70
2022/05/18 01:22:48;;;;;;;0.20;0.20;;;;;;;17.91;78.93;100300.59;5035291;28;20037;-70
2022/05/18 01:25:35;;;;;;;0.20;0.20;;;;;;;17.85;78.68;100307.06;5034816;28;20049;-69
2022/05/18 01:28:02;;;;;;;0.20;0.20;;;;;;;17.87;78.88;100299.00;5035083;28;20034;-70
2022/05/18 01:30:29;;;;;;;0.20;0.20;;;;;;;17.92;78.83;100305.00;5035353;28;20021;-70
2022/05/18 01:32:57;;;;;;;0.10;0.10;;;;;;;17.91;78.54;100302.63;5035063;28;20021;-70
2022/05/18 01:35:33;;;;;;;0.10;0.10;;;;;;;17.95;77.43;100300.56;5035275;28;20030;-70
2022/05/18 01:37:59;;;;;;;0.20;0.20;;;;;;;17.86;78.01;100294.59;5035470;28;20482;-70
2022/05/18 01:40:35;;;;;;;0.20;0.20;;;;;;;17.84;77.91;100300.63;5034929;28;20160;-69
2022/05/18 01:43:42;;;;;;;0.20;0.20;;;;;;;17.83;77.80;100303.84;5036167;28;20354;-70
2022/05/18 01:46:11;;;;;;;0.20;0.20;;;;;;;17.76;77.93;100302.66;5006234;28;20038;-70
2022/05/18 01:48:42;;;;;;;0.20;0.20;;;;;;;17.72;78.40;100307.50;5035315;28;20107;-69
2022/05/18 01:51:09;;;;;;;0.20;0.20;;;;;;;17.68;78.10;100303.06;5034767;28;20025;-70
2022/05/18 01:53:36;;;;;;;0.20;0.20;;;;;;;17.73;78.67;100305.50;5035228;28;20152;-70
2022/05/18 01:56:03;;;;;;;0.20;0.20;;;;;;;17.65;79.20;100295.47;5034649;28;20504;-69
2022/05/18 01:58:28;;;;;;;0.20;0.20;;;;;;;17.69;79.52;100302.69;5034615;28;20034;-70
2022/05/18 02:00:54;;;;;;;0.20;0.20;;;;;;;17.67;79.87;100293.81;5034558;28;20038;-70
2022/05/18 02:03:21;;;;;;;0.20;0.20;;;;;;;17.75;80.01;100301.06;5035158;28;20025;-70
2022/05/18 02:05:47;;;;;;;0.20;0.20;;;;;;;17.73;79.95;100297.03;5034757;28;20419;-70
2022/05/18 02:08:15;;;;;;;0.20;0.20;;;;;;;17.71;80.12;100303.06;5018610;28;20029;-70
2022/05/18 02:10:41;;;;;;;0.20;0.20;;;;;;;17.70;79.87;100309.91;5034701;28;20040;-70
2022/05/18 02:13:08;;;;;;;0.20;0.20;;;;;;;17.73;80.67;100306.28;5034616;28;20357;-70
2022/05/18 02:15:34;;;;;;;0.10;0.10;;;;;;;17.76;81.15;100308.28;5034253;28;20037;-70
2022/05/18 02:18:01;;;;;;;0.20;0.20;;;;;;;17.74;81.68;100298.69;5034755;28;20045;-70
2022/05/18 02:20:26;;;;;;;0.20;0.20;;;;;;;17.77;81.24;100309.91;5034737;28;20143;-70
2022/05/18 02:22:52;;;;;;;0.20;0.20;;;;;;;17.66;80.99;100320.38;5034163;28;20488;-70
2022/05/18 02:25:21;;;;;;;0.20;0.20;;;;;;;17.64;82.08;100316.38;5033713;28;20053;-70
2022/05/18 02:27:47;;;;;;;0.20;0.20;;;;;;;17.61;82.14;100317.97;5034097;28;20088;-70
2022/05/18 02:30:14;;;;;;;0.20;0.20;;;;;;;17.63;82.39;100326.81;5034288;28;20025;-70
2022/05/18 02:32:40;;;;;;;0.20;0.20;;;;;;;17.58;82.81;100315.16;5034806;28;20029;-70
2022/05/18 02:35:06;;;;;;;0.20;0.20;;;;;;;17.58;82.57;100316.00;5034470;28;20487;-70
2022/05/18 02:37:33;;;;;;;0.20;0.20;;;;;;;17.53;82.58;100319.22;5034422;28;20061;-69
2022/05/18 02:39:59;;;;;;;0.20;0.20;;;;;;;17.50;82.77;100311.59;5033766;28;20096;-69
2022/05/18 02:42:25;;;;;;;0.20;0.20;;;;;;;17.57;82.28;100311.56;5033333;28;20136;-69
2022/05/18 02:44:50;;;;;;;0.10;0.10;;;;;;;17.51;82.53;100307.56;5033998;28;20381;-69
2022/05/18 02:47:17;;;;;;;0.20;0.20;;;;;;;17.53;82.63;100314.41;5033610;28;20515;-70
2022/05/18 02:49:43;;;;;;;0.20;0.20;;;;;;;17.53;82.86;100313.59;5017420;28;20124;-70
2022/05/18 02:52:09;;;;;;;0.10;0.10;;;;;;;17.53;82.67;100316.41;5033585;28;20121;-70
2022/05/18 02:57:19;;;;;;;0.20;0.20;;;;;;;17.58;82.30;100310.38;5035260;28;20037;-70
2022/05/18 02:59:45;;;;;;;0.20;0.20;;;;;;;17.63;82.48;100309.13;5033872;28;20029;-70
2022/05/18 03:02:11;;;;;;;0.20;0.20;;;;;;;17.59;81.96;100308.34;5033372;28;20037;-70
2022/05/18 03:04:37;;;;;;;0.20;0.20;;;;;;;17.63;81.44;100309.94;5033582;28;20037;-70
2022/05/18 03:07:04;;;;;;;0.20;0.20;;;;;;;17.65;81.22;100320.78;5033060;28;20544;-70
2022/05/18 03:09:30;;;;;;;0.20;0.20;;;;;;;17.68;80.92;100312.31;5033202;28;20124;-70
2022/05/18 03:11:56;;;;;;;0.20;0.20;;;;;;;17.68;81.54;100320.75;5033738;28;20361;-70
2022/05/18 03:14:23;;;;;;;0.20;0.20;;;;;;;17.60;81.86;100324.81;5033119;28;20452;-70
2022/05/18 03:16:49;;;;;;;0.20;0.20;;;;;;;17.56;82.52;100329.66;5033382;28;20037;-70
2022/05/18 03:19:15;;;;;;;0.20;0.20;;;;;;;17.53;82.43;100327.66;5032644;28;20120;-70
2022/05/18 03:24:25;;;;;;;0.10;0.10;;;;;;;17.57;82.71;100324.81;5040000;28;20091;-70
2022/05/18 03:26:51;;;;;;;0.20;0.20;;;;;;;17.57;83.34;100319.19;5036192;28;20423;-70
2022/05/18 03:29:17;;;;;;;0.20;0.20;;;;;;;17.59;82.94;100328.03;5036179;28;20120;-70
2022/05/18 03:31:44;;;;;;;0.20;0.20;;;;;;;17.51;83.39;100327.25;5037011;28;20118;-71
2022/05/18 03:34:10;;;;;;;0.20;0.20;;;;;;;17.45;84.14;100329.69;5036175;28;20025;-70
2022/05/18 03:36:36;;;;;;;0.20;0.20;;;;;;;17.44;84.76;100335.72;5036621;28;20120;-70
2022/05/18 03:39:03;;;;;;;0.20;0.20;;;;;;;17.42;84.63;100335.34;5036072;28;20025;-72
2022/05/18 03:41:28;;;;;;;0.20;0.20;;;;;;;17.43;85.04;100328.50;5036085;28;20060;-70
2022/05/18 03:43:54;;;;;;;0.20;0.20;;;;;;;17.43;84.68;100331.31;5035976;28;20032;-70
2022/05/18 03:46:20;;;;;;;0.20;0.20;;;;;;;17.43;85.55;100328.50;5035896;28;20031;-70
2022/05/18 03:48:46;;;;;;;0.20;0.20;;;;;;;17.48;85.58;100330.91;5036498;28;20074;-70
2022/05/18 03:51:13;;;;;;;0.20;0.20;;;;;;;17.51;85.96;100324.44;5035963;28;20041;-70
2022/05/18 03:53:39;;;;;;;0.20;0.20;;;;;;;17.49;85.42;100327.66;5036642;28;20029;-70
2022/05/18 03:56:05;;;;;;;0.13;0.13;;;;;;;17.56;86.12;100338.09;5036406;28;20431;-70
2022/05/18 03:58:30;;;;;;;0.20;0.20;;;;;;;17.53;85.64;100334.09;5035798;28;20029;-70
2022/05/18 04:00:58;;;;;;;0.20;0.20;;;;;;;17.56;85.57;100338.09;5035811;28;20036;-70
2022/05/18 04:03:26;;;;;;;0.20;0.20;;;;;;;17.74;83.97;100338.06;5035727;28;20059;-70
2022/05/18 04:05:52;;;;;;;0.20;0.20;;;;;;;17.77;83.48;100349.28;5035719;28;20033;-70
2022/05/18 04:08:18;;;;;;;0.20;0.20;;;;;;;17.93;83.48;100351.66;5036173;28;20116;-70
2022/05/18 04:10:44;;;;;;;0.20;0.20;;;;;;;18.19;82.17;100352.31;5019173;28;20136;-70
2022/05/18 04:13:15;;;;;;;0.20;0.20;;;;;;;18.52;79.95;100356.53;5035934;28;20025;-70
2022/05/18 04:15:41;;;;;;;0.20;0.20;;;;;;;18.81;78.57;100363.63;5035614;28;20116;-70
2022/05/18 04:18:07;;;;;;;0.20;0.20;;;;;;;19.19;76.87;100374.97;5035757;28;20111;-71
2022/05/18 04:20:33;;;;;;;0.20;0.20;;;;;;;19.55;75.41;100364.13;5035555;28;20471;-70
2022/05/18 04:22:59;;;;;;;0.20;0.20;;;;;;;19.93;73.39;100364.13;5035541;28;20145;-70
2022/05/18 04:25:28;;;;;;;0.10;0.10;;;;;;;20.34;71.83;100358.31;5031928;28;20062;-70
2022/05/18 04:27:54;;;;;;;0.20;0.20;;;;;;;20.82;70.29;100367.72;5032989;28;20037;-70
2022/05/18 04:30:24;;;;;;;0.15;0.15;;;;;;;21.20;68.45;100368.31;5032177;28;20060;-70
2022/05/18 04:32:49;;;;;;;0.20;0.20;;;;;;;21.56;66.86;100373.31;5032117;28;20026;-70
2022/05/18 04:35:18;;;;;;;0.20;0.20;;;;;;;21.87;64.13;100366.22;5032628;28;20034;-70
2022/05/18 04:37:44;;;;;;;0.20;0.20;;;;;;;22.25;64.68;100367.91;5031652;28;20026;-70
2022/05/18 04:40:10;;;;;;;0.20;0.20;;;;;;;22.72;63.67;100374.09;5031967;28;20052;-70
2022/05/18 04:42:37;;;;;;;0.20;0.20;;;;;;;23.00;62.32;100366.94;5031901;28;20058;-70
2022/05/18 04:45:04;;;;;;;0.20;0.20;;;;;;;23.26;61.25;100373.59;5031982;28;20033;-70
2022/05/18 04:47:29;;;;;;;0.10;0.10;;;;;;;22.99;61.78;100379.53;5032034;28;20026;-71
2022/05/18 04:49:56;;;;;;;0.20;0.20;;;;;;;23.32;61.96;100380.31;5031894;28;20091;-69
2022/05/18 04:52:22;;;;;;;0.10;0.10;;;;;;;23.86;60.20;100379.66;5031763;28;20032;-69
2022/05/18 04:54:48;;;;;;;0.10;0.10;;;;;;;24.23;58.65;100388.75;5031754;28;20037;-69
2022/05/18 04:57:15;;;;;;;0.20;0.20;;;;;;;24.31;58.06;100387.28;5031845;28;20495;-70
2022/05/18 04:59:40;;;;;;;0.20;0.20;;;;;;;24.66;57.75;100393.97;5031144;28;20044;-69
2022/05/18 05:02:06;;;;;;;0.10;0.10;;;;;;;24.77;55.96;100387.94;5031710;28;20140;-69
2022/05/18 05:04:33;;;;;;;0.13;0.13;;;;;;;24.76;55.60;100392.00;5031387;28;20026;-70
2022/05/18 05:06:58;;;;;;;0.20;0.20;;;;;;;24.92;55.27;100394.72;5034115;28;20034;-69
2022/05/18 05:09:24;;;;;;;0.10;0.10;;;;;;;24.47;58.23;100387.22;5035572;28;20033;-70
2022/05/18 05:11:51;;;;;;;0.10;0.10;;;;;;;24.66;57.27;100399.66;5036604;28;20036;-70
2022/05/18 05:14:18;;;;;;;0.10;0.10;;;;;;;24.49;59.48;100398.16;5036137;28;20033;-70
2022/05/18 05:16:43;;;;;;;0.20;0.20;;;;;;;24.11;59.23;100403.75;5035259;28;20485;-70
2022/05/18 05:19:09;;;;;;;0.20;0.20;;;;;;;23.90;59.93;100393.78;5035126;28;20036;-71
2022/05/18 05:21:36;;;;;;;0.13;0.13;;;;;;;24.57;58.40;100396.69;5035169;28;20468;-70
2022/05/18 05:24:02;;;;;;;0.10;0.10;;;;;;;24.67;57.44;100394.75;5037050;28;20029;-70
2022/05/18 05:26:28;;;;;;;0.10;0.10;;;;;;;24.62;56.33;100390.44;5038121;28;20061;-70
2022/05/18 05:28:54;;;;;;;0.20;0.20;;;;;;;24.58;58.60;100392.59;5038055;28;20021;-70
2022/05/18 05:31:19;;;;;;;0.10;0.10;;;;;;;25.46;56.12;100401.50;5037988;28;20021;-71
2022/05/18 05:33:45;;;;;;;0.20;0.20;;;;;;;26.21;53.76;100399.59;5038241;28;20071;-71
2022/05/18 05:36:11;;;;;;;0.20;0.20;;;;;;;26.58;50.75;100396.97;5037998;28;20423;-70
2022/05/18 05:38:38;;;;;;;0.20;0.20;;;;;;;26.50;52.63;100401.38;5038034;28;20048;-71
2022/05/18 05:41:04;;;;;;;0.10;0.10;;;;;;;26.40;53.94;100409.06;5038262;28;20025;-71
2022/05/18 05:43:33;;;;;;;0.10;0.10;;;;;;;27.05;50.59;100405.22;5037922;28;20036;-70
2022/05/18 05:46:04;;;;;;;0.20;0.20;;;;;;;27.29;50.88;100391.22;5055752;28;20029;-71
2022/05/18 05:48:32;;;;;;;0.15;0.15;;;;;;;27.51;50.47;100407.44;5038254;28;20044;-71
2022/05/18 05:50:59;;;;;;;0.20;0.20;;;;;;;27.53;47.85;100407.75;5037894;28;20026;-70
2022/05/18 05:53:25;;;;;;;0.10;0.10;;;;;;;27.98;47.90;100409.84;5038255;28;20415;-71
2022/05/18 05:55:53;;;;;;;0.15;0.15;;;;;;;28.36;47.97;100411.41;5037877;28;20067;-71
2022/05/18 05:58:20;;;;;;;0.10;0.10;;;;;;;28.87;45.60;100410.56;5038103;28;20021;-70
2022/05/18 06:00:46;;;;;;;0.10;0.10;;;;;;;29.23;45.13;100409.63;5037704;28;20538;-71
2022/05/18 06:03:16;;;;;;;0.10;0.10;;;;;;;29.57;43.84;100414.06;5037498;28;20025;-71
2022/05/18 06:05:42;;;;;;;0.10;0.10;;;;;;;28.89;42.34;100367.94;5037972;28;20468;-71
2022/05/18 06:08:09;;;;;;;0.10;0.10;;;;;;;29.62;42.41;100413.38;5037415;28;20041;-71
2022/05/18 06:10:35;;;;;;;0.10;0.10;;;;;;;29.66;41.97;100418.91;5037061;28;20498;-71
2022/05/18 06:13:10;;;;;;;0.10;0.10;;;;;;;29.10;41.31;100383.28;5037313;28;20033;-71
2022/05/18 06:15:36;;;;;;;0.10;0.10;;;;;;;28.99;43.15;100415.34;5055346;28;20017;-70
2022/05/18 06:18:02;;;;;;;0.10;0.10;;;;;;;29.03;42.16;100418.00;5036290;28;20047;-70
2022/05/18 06:20:27;;;;;;;0.10;0.10;;;;;;;29.04;43.27;100425.34;5037511;28;20544;-71
2022/05/18 06:22:53;;;;;;;0.10;0.10;;;;;;;28.66;42.95;100432.47;5037196;28;20434;-70
2022/05/18 06:25:19;;;;;;;0.10;0.10;;;;;;;26.49;50.36;100431.16;5036739;28;20053;-70
2022/05/18 06:27:44;;;;;;;0.10;0.10;;;;;;;26.53;51.32;100435.47;5036974;28;20025;-70
2022/05/18 06:30:12;;;;;;;0.10;0.10;;;;;;;26.57;51.69;100436.13;5036651;28;20090;-70
2022/05/18 06:32:38;;;;;;;0.10;0.10;;;;;;;27.12;50.53;100432.75;5037222;28;20468;-70
2022/05/18 06:35:06;;;;;;;0.10;0.10;;;;;;;27.49;48.27;100430.78;5036903;28;20112;-70
2022/05/18 06:37:32;;;;;;;0.10;0.10;;;;;;;28.22;46.63;100434.91;5020848;28;20560;-70
2022/05/18 06:39:58;;;;;;;0.10;0.10;;;;;;;28.12;46.00;100426.34;5036675;28;20036;-71
2022/05/18 06:42:23;;;;;;;0.10;0.10;;;;;;;28.35;46.26;100436.38;5037046;28;20033;-71
2022/05/18 06:44:50;;;;;;;0.20;0.20;;;;;;;28.88;45.04;100435.09;5036494;28;20048;-70
2022/05/18 06:47:17;;;;;;;0.10;0.10;;;;;;;28.10;45.41;100440.34;5037111;28;20128;-71
2022/05/18 06:49:43;;;;;;;0.10;0.10;;;;;;;28.65;44.54;100445.97;5036604;28;20028;-71
2022/05/18 06:52:09;;;;;;;0.10;0.10;;;;;;;28.49;45.61;100442.69;5036945;28;20017;-71
2022/05/18 06:54:36;;;;;;;0.10;0.10;;;;;;;28.27;46.36;100452.22;5036866;28;20387;-71
2022/05/18 06:57:02;;;;;;;0.10;0.10;;;;;;;28.55;46.31;100440.75;5036550;28;20029;-71
2022/05/18 06:59:27;;;;;;;0.10;0.10;;;;;;;28.63;45.71;100448.53;5036403;28;20086;-71
2022/05/18 07:01:53;;;;;;;0.10;0.10;;;;;;;28.51;44.84;100448.72;5036420;28;20029;-71
2022/05/18 07:04:19;;;;;;;0.10;0.10;;;;;;;28.89;43.33;100442.41;5036890;28;20039;-71
2022/05/18 07:06:45;;;;;;;0.15;0.15;;;;;;;29.71;41.26;100444.03;5036451;28;20021;-71
2022/05/18 07:09:15;;;;;;;0.10;0.10;;;;;;;29.81;38.76;100442.69;5036245;28;20021;-71
2022/05/18 07:11:42;;;;;;;0.10;0.10;;;;;;;29.92;38.50;100442.13;5036596;28;20039;-71
2022/05/18 07:14:07;;;;;;;0.10;0.10;;;;;;;29.06;38.28;100445.69;5036206;28;20476;-71
2022/05/18 07:16:35;;;;;;;0.10;0.10;;;;;;;28.69;35.90;100435.16;5036225;28;20029;-71
2022/05/18 07:19:01;;;;;;;0.10;0.10;;;;;;;29.36;35.28;100440.91;5036680;28;20032;-71
2022/05/18 07:21:27;;;;;;;0.10;0.10;;;;;;;29.86;34.07;100432.63;5036269;28;20357;-71
2022/05/18 07:23:54;;;;;;;0.10;0.10;;;;;;;28.70;36.21;100438.81;5036326;28;20132;-71
2022/05/18 07:26:22;;;;;;;0.10;0.10;;;;;;;28.16;36.13;100444.13;5036540;28;20479;-71
2022/05/18 07:28:48;;;;;;;0.10;0.10;;;;;;;27.50;38.41;100426.63;5035971;28;20464;-71
2022/05/18 07:31:15;;;;;;;0.10;0.10;;;;;;;27.02;38.15;100429.03;5036145;28;20021;-71
2022/05/18 07:33:40;;;;;;;0.10;0.10;;;;;;;26.21;40.58;100436.69;5036354;28;20131;-70
2022/05/18 07:36:07;;;;;;;0.20;0.20;;;;;;;27.76;37.43;100427.19;5035562;28;20190;-68
2022/05/18 07:38:34;;;;;;;0.10;0.10;;;;;;;27.52;37.57;100423.31;5036058;28;20158;-71
2022/05/18 07:41:00;;;;;;;0.20;0.20;;;;;;;28.66;35.26;100430.41;5035745;28;20092;-70
2022/05/18 07:43:26;;;;;;;0.10;0.10;;;;;;;28.53;35.20;100424.06;5019548;28;20480;-71
2022/05/18 07:45:54;;;;;;;0.10;0.10;;;;;;;28.48;35.90;100436.16;5035652;28;20047;-71
2022/05/18 07:48:21;;;;;;;0.20;0.20;;;;;;;28.49;35.60;100426.31;5035689;28;20025;-71
2022/05/18 07:50:47;;;;;;;0.10;0.10;;;;;;;28.04;36.03;100433.66;5035903;28;20016;-70
2022/05/18 07:53:13;;;;;;;0.10;0.10;;;;;;;27.88;35.63;100429.06;5035524;28;20467;-71
2022/05/18 07:55:38;;;;;;;0.10;0.10;;;;;;;28.98;34.87;100445.25;5035776;28;20021;-71
2022/05/18 07:58:09;;;;;;;0.10;0.10;;;;;;;29.12;34.72;100438.81;5035237;28;20446;-71
2022/05/18 08:00:35;;;;;;;0.10;0.10;;;;;;;28.41;34.68;100437.31;5035534;28;20507;-70
2022/05/18 08:03:02;;;;;;;0.10;0.10;;;;;;;29.11;34.14;100445.81;5035446;28;20041;-70
2022/05/18 08:05:29;;;;;;;0.15;0.15;;;;;;;29.66;33.22;100433.25;5035410;28;20087;-71
2022/05/18 08:07:55;;;;;;;0.10;0.10;;;;;;;30.18;32.66;100431.72;5035366;28;20025;-70
2022/05/18 08:15:50;;;;;;;0.10;0.10;;;;;;;30.74;30.67;100437.69;5053429;28;20447;-71
2022/05/18 08:18:20;;;;;;;0.10;0.10;;;;;;;31.06;29.76;100435.06;5034986;28;20040;-71
2022/05/18 08:20:48;;;;;;;0.10;0.10;;;;;;;30.63;30.51;100432.53;5035500;28;20103;-71
2022/05/18 08:23:15;;;;;;;0.10;0.10;;;;;;;31.23;29.58;100439.75;5053319;28;20044;-71
2022/05/18 08:25:43;;;;;;;0.10;0.10;;;;;;;31.26;29.12;100435.09;5031585;28;20470;-71
2022/05/18 08:28:09;;;;;;;0.10;0.10;;;;;;;31.59;28.52;100420.41;5032291;28;20021;-71
2022/05/18 08:30:35;;;;;;;0.10;0.10;;;;;;;31.50;28.22;100434.94;5032119;28;20393;-71
2022/05/18 08:33:02;;;;;;;0.10;0.10;;;;;;;31.66;28.50;100425.72;5032226;28;20041;-71
2022/05/18 08:35:30;;;;;;;0.10;0.10;;;;;;;31.65;28.92;100432.78;5031866;28;20033;-71
2022/05/18 08:37:56;;;;;;;0.10;0.10;;;;;;;31.54;28.63;100441.25;5031554;28;20033;-71
2022/05/18 08:40:28;;;;;;;0.10;0.10;;;;;;;31.47;28.26;100438.78;5031943;28;20034;-71
2022/05/18 08:42:56;;;;;;;0.10;0.10;;;;;;;31.30;28.49;100435.69;5035621;28;20026;-71
2022/05/18 08:45:25;;;;;;;0.10;0.10;;;;;;;31.53;28.71;100436.78;5035676;28;20065;-71
2022/05/18 08:48:14;;;;;;;0.10;0.10;;;;;;;32.54;27.77;100440.84;5036182;28;20029;-71
2022/05/18 08:50:41;;;;;;;0.10;0.10;;;;;;;31.56;28.25;100450.94;5025211;28;20041;-71
2022/05/18 08:53:16;;;;;;;0.10;0.10;;;;;;;31.73;27.96;100425.28;5035891;28;20121;-71
2022/05/18 08:56:03;;;;;;;0.10;0.10;;;;;;;31.35;28.24;100449.34;5035158;28;20068;-71
2022/05/18 08:58:29;;;;;;;0.10;0.10;;;;;;;30.45;29.28;100447.84;5035399;28;20025;-71
2022/05/18 09:01:06;;;;;;;0.10;0.10;;;;;;;31.32;28.36;100449.56;5035539;28;20040;-69
2022/05/18 09:03:58;;;;;;;0.10;0.10;;;;;;;31.70;27.91;100455.06;5035704;28;20464;-69
2022/05/18 09:06:24;;;;;;;0.10;0.10;;;;;;;32.29;27.55;100454.72;5026474;28;20400;-71
2022/05/18 09:11:50;;;;;;;0.10;0.10;;;;;;;31.99;26.00;100447.59;5037164;28;20040;-69
2022/05/18 09:14:21;;;;;;;0.10;0.10;;;;;;;31.97;26.52;100450.97;5035769;28;20116;-69
2022/05/18 09:17:11;;;;;;;0.10;0.10;;;;;;;32.74;25.94;100443.63;5035568;28;20026;-69
2022/05/18 09:20:11;;;;;;;0.10;0.10;;;;;;;32.10;26.27;100458.44;5035055;28;20088;-70
2022/05/18 09:23:05;;;;;;;0.10;0.10;;;;;;;33.17;25.75;100452.38;5035038;28;20550;-69
2022/05/18 09:25:52;;;;;;;0.10;0.10;;;;;;;32.19;26.39;100453.31;5034657;28;20060;-69
2022/05/18 09:28:29;;;;;;;0.10;0.10;;;;;;;32.85;25.55;100449.47;5035703;28;20026;-70
2022/05/18 09:31:07;;;;;;;0.10;0.10;;;;;;;33.37;24.53;100449.34;5035729;28;20384;-69
2022/05/18 09:33:38;;;;;;;0.10;0.10;;;;;;;33.11;25.66;100448.66;5034776;28;20087;-70
2022/05/18 09:36:24;;;;;;;0.10;0.10;;;;;;;32.55;25.73;100451.88;5035182;28;20112;-69
2022/05/18 09:38:53;;;;;;;0.10;0.10;;;;;;;32.96;25.57;100437.28;5034668;28;20134;-70
2022/05/18 09:41:22;;;;;;;0.10;0.10;;;;;;;33.33;23.80;100448.78;5034603;28;20112;-70
2022/05/18 09:44:01;;;;;;;0.10;0.10;;;;;;;33.21;24.00;100450.03;5034781;28;20029;-70
2022/05/18 09:46:30;;;;;;;0.10;0.10;;;;;;;32.19;24.66;100447.56;5036174;28;20032;-69
2022/05/18 09:49:01;;;;;;;0.10;0.10;;;;;;;32.24;25.09;100454.66;5034586;28;20029;-70
2022/05/18 09:51:27;;;;;;;0.10;0.10;;;;;;;32.84;23.92;100442.16;5035778;28;20034;-70
2022/05/18 09:53:53;;;;;;;0.10;0.10;;;;;;;33.27;23.62;100450.06;5034714;28;20116;-69
2022/05/18 09:56:30;;;;;;;0.10;0.10;;;;;;;33.14;23.40;100441.88;5034508;28;20040;-70
2022/05/18 09:59:01;;;;;;;0.10;0.10;;;;;;;32.77;23.66;100442.63;5034627;28;20021;-70
2022/05/18 10:07:27;;;;;;;0.10;0.10;;;;;;;31.51;26.14;100448.78;5034721;28;20392;-71
2022/05/18 10:10:10;;;;;;;0.10;0.10;;;;;;;31.01;26.31;100440.22;5035695;28;20025;-70
2022/05/18 10:13:03;;;;;;;0.10;0.10;;;;;;;30.84;27.39;100424.81;5034087;28;20468;-70
2022/05/18 10:15:45;;;;;;;0.10;0.10;;;;;;;31.17;26.84;100441.75;5034053;28;20057;-71
2022/05/18 10:18:11;;;;;;;0.10;0.10;;;;;;;31.56;26.50;100439.44;5034783;28;20168;-70
2022/05/18 10:20:37;;;;;;;0.10;0.10;;;;;;;30.32;27.47;100447.38;5033928;28;20123;-70
2022/05/18 10:23:05;;;;;;;0.10;0.10;;;;;;;29.98;27.79;100429.47;5033825;28;20037;-70
2022/05/18 10:25:49;;;;;;;0.10;0.10;;;;;;;30.60;27.46;100427.75;5033401;28;20110;-70
2022/05/18 10:28:24;;;;;;;0.10;0.10;;;;;;;30.54;27.72;100432.63;5033825;28;20029;-70
2022/05/18 10:31:22;;;;;;;0.10;0.10;;;;;;;30.96;27.19;100425.75;5034387;28;20040;-70
2022/05/18 10:33:47;;;;;;;0.10;0.10;;;;;;;31.01;27.68;100434.47;5033738;28;20022;-70
2022/05/18 10:36:16;;;;;;;0.10;0.10;;;;;;;30.64;26.75;100428.34;5033540;28;20041;-70
2022/05/18 10:38:54;;;;;;;0.10;0.10;;;;;;;30.64;26.91;100411.13;5033489;28;20032;-69
2022/05/18 10:41:26;;;;;;;0.10;0.10;;;;;;;30.91;26.28;100412.09;5033917;28;20455;-70
2022/05/18 10:43:54;;;;;;;0.10;0.10;;;;;;;30.84;25.56;100418.25;5033328;28;20163;-70
2022/05/18 10:46:36;;;;;;;0.10;0.10;;;;;;;30.98;26.49;100414.56;5033339;28;20219;-70
2022/05/18 10:49:25;;;;;;;0.10;0.10;;;;;;;30.68;26.02;100426.09;5033318;28;20514;-69
2022/05/18 10:51:51;;;;;;;0.10;0.10;;;;;;;29.96;26.44;100425.53;5033500;28;20117;-69
2022/05/18 10:54:30;;;;;;;0.10;0.10;;;;;;;29.68;27.16;100413.50;5033398;28;20030;-69
2022/05/18 10:57:17;;;;;;;0.10;0.10;;;;;;;29.58;27.81;100424.22;5034645;28;20026;-69
2022/05/18 11:00:01;;;;;;;0.10;0.10;;;;;;;29.73;26.94;100409.94;5033548;28;20036;-70
2022/05/18 11:02:43;;;;;;;0.10;0.10;;;;;;;30.55;26.25;100419.84;5033563;28;20037;-71
2022/05/18 11:05:28;;;;;;;0.10;0.10;;;;;;;30.08;27.07;100401.50;5032957;28;20084;-70
2022/05/18 11:07:54;;;;;;;0.10;0.10;;;;;;;30.10;27.13;100401.81;5032878;28;20091;-70
2022/05/18 11:10:21;;;;;;;0.10;0.10;;;;;;;29.84;27.39;100407.31;5034201;28;20029;-70
2022/05/18 11:13:10;;;;;;;0.20;0.20;;;;;;;30.31;26.98;100416.28;5034898;28;20029;-70
2022/05/18 11:15:47;;;;;;;0.20;0.20;;;;;;;30.19;26.33;100395.97;5033415;28;20059;-70
2022/05/18 11:18:44;;;;;;;0.10;0.10;;;;;;;29.72;27.30;100412.03;5032690;28;20464;-69
2022/05/18 11:21:27;;;;;;;0.10;0.10;;;;;;;29.99;27.21;100408.13;5033253;28;20036;-69
2022/05/18 11:24:07;;;;;;;0.10;0.10;;;;;;;30.44;26.59;100383.13;5033890;28;20030;-71
2022/05/18 11:26:42;;;;;;;0.10;0.10;;;;;;;30.53;27.23;100405.19;5036141;28;20483;-69
2022/05/18 11:29:08;;;;;;;0.10;0.10;;;;;;;30.62;26.48;100416.56;5035719;28;20031;-70
2022/05/18 11:32:11;;;;;;;0.10;0.10;;;;;;;29.84;27.61;100417.97;5036704;28;20371;-69
2022/05/18 11:35:20;;;;;;;0.10;0.10;;;;;;;29.88;27.41;100396.44;5035812;28;20036;-70
2022/05/18 11:37:51;;;;;;;0.10;0.10;;;;;;;29.50;27.17;100400.84;5009499;28;20033;-70
2022/05/18 11:40:35;;;;;;;0.10;0.10;;;;;;;29.63;27.17;100392.03;5036459;28;20125;-70
2022/05/18 11:43:25;;;;;;;0.10;0.10;;;;;;;29.31;27.09;100410.06;5036264;28;20048;-69
2022/05/18 11:46:23;;;;;;;0.10;0.10;;;;;;;29.76;26.28;100388.88;5035655;28;20025;-70
2022/05/18 11:48:51;;;;;;;0.10;0.10;;;;;;;30.19;25.64;100395.97;5026263;28;20128;-69
2022/05/18 11:51:51;;;;;;;0.10;0.10;;;;;;;29.82;26.77;100403.31;5035540;28;20025;-69
2022/05/18 11:54:20;;;;;;;0.10;0.10;;;;;;;29.42;27.17;100393.13;5036417;28;20029;-69
2022/05/18 11:57:04;;;;;;;0.10;0.10;;;;;;;29.43;26.67;100386.09;5036238;28;20029;-70